This is the latest recevied weather packets stored in our database for station/object CA4LJZ-10. If no packets are shown the sender has not sent any weather packets the latest 10 day(s).
| Time | Temp. | Humidity | Pressure | Rain* | Wind** | Luminosity | Snow |
|---|---|---|---|---|---|---|---|
| 1777573408 | 38.89° C | 19% | 949.2 hPa | - | - | - | - |
| 1777572507 | 43.89° C | 16% | 949.4 hPa | - | - | - | - |
| 1777571606 | 41.67° C | 18% | 949.5 hPa | - | - | - | - |
| 1777570705 | 43.89° C | 16% | 949.7 hPa | - | - | - | - |
| 1777569825 | 38.33° C | 19% | 950 hPa | - | - | - | - |
| 1777568960 | 42.22° C | 17% | 950.1 hPa | - | - | - | - |
| 1777568924 | 42.22° C | 17% | 950.1 hPa | - | - | - | - |
| 1777568024 | 38.89° C | 19% | 950.4 hPa | - | - | - | - |
| 1777567122 | 38.33° C | 20% | 950.4 hPa | - | - | - | - |
| 1777566221 | 43.33° C | 16% | 950.7 hPa | - | - | - | - |
| 1777565320 | 38.33° C | 20% | 950.7 hPa | - | - | - | - |
| 1777564419 | 39.44° C | 20% | 950.8 hPa | - | - | - | - |
| 1777563519 | 37.22° C | 22% | 950.8 hPa | - | - | - | - |
| 1777562618 | 37.22° C | 22% | 950.7 hPa | - | - | - | - |
| 1777561859 | 38.89° C | 20% | 950.6 hPa | - | - | - | - |
| 1777561716 | 38.89° C | 20% | 950.6 hPa | - | - | - | - |
| 1777560816 | 40.56° C | 20% | 950.4 hPa | - | - | - | - |
| 1777559915 | 39.44° C | 20% | 950.3 hPa | - | - | - | - |
| 1777559014 | 36.67° C | 24% | 950.1 hPa | - | - | - | - |
| 1777558507 | 36.67° C | 24% | 950.1 hPa | - | - | - | - |
| 1777558113 | 36.67° C | 24% | 950.1 hPa | - | - | - | - |
| 1777557212 | 31.67° C | 30% | 950.1 hPa | - | - | - | - |
| 1777556311 | 31.11° C | 31% | 950.5 hPa | - | - | - | - |
| 1777555410 | 25.56° C | 38% | 949.7 hPa | - | - | - | - |
| 1777554508 | 23.89° C | 40% | 949.9 hPa | - | - | - | - |
* Rain since midnight (hover to see other rain measurements)
** Current wind speed in m/s (hover to see current wind gust speed)